Time;durP1;ratioP1;P1;durP2;ratioP2;P2;SDS_P1;SDS_P2;PMS_P1;PMS_P2;Temp;Humidity;BMP_temperature;BMP_pressure;BME280_temperature;BME280_humidity;BME280_pressure;Samples;Min_cycle;Max_cycle;Signal;HPM_P1;HPM_P2
2021/07/22 00:01:37;;;;;;;29.98;5.10;;;;;;;;;;5046599;28;20017;-45
2021/07/22 00:04:05;;;;;;;32.33;6.15;;;;;;;;;;5047503;28;20033;-45
2021/07/22 00:06:32;;;;;;;35.47;5.43;;;;;;;;;;5042772;28;20537;-45
2021/07/22 00:08:59;;;;;;;28.55;4.93;;;;;;;;;;5196720;23;20052;-45
2021/07/22 00:11:26;;;;;;;27.85;6.15;;;;;;;;;;5076957;28;20111;-45
2021/07/22 00:13:53;;;;;;;24.13;4.90;;;;;;;;;;5079943;28;20048;-45
2021/07/22 00:16:21;;;;;;;25.20;4.30;;;;;;;;;;5084278;28;20047;-45
2021/07/22 00:18:48;;;;;;;26.48;4.90;;;;;;;;;;5075225;28;20386;-45
2021/07/22 00:21:15;;;;;;;26.85;4.82;;;;;;;;;;5088169;28;20016;-45
2021/07/22 00:23:42;;;;;;;24.38;4.90;;;;;;;;;;5088369;28;20040;-44
2021/07/22 00:26:14;;;;;;;37.35;4.85;;;;;;;;;;5086336;28;20026;-45
2021/07/22 00:28:43;;;;;;;24.95;4.68;;;;;;;;;;5088181;28;20494;-44
2021/07/22 00:31:10;;;;;;;45.03;6.00;;;;;;;;;;5084502;28;20037;-45
2021/07/22 00:33:37;;;;;;;29.83;5.43;;;;;;;;;;5086211;28;20119;-45
2021/07/22 00:36:08;;;;;;;36.60;5.80;;;;;;;;;;5088455;28;20020;-45
2021/07/22 00:38:36;;;;;;;36.85;5.78;;;;;;;;;;5083520;28;20048;-46
2021/07/22 00:41:03;;;;;;;47.05;5.70;;;;;;;;;;5087445;28;20028;-44
2021/07/22 00:43:30;;;;;;;34.65;5.78;;;;;;;;;;5084583;28;20024;-44
2021/07/22 00:45:58;;;;;;;31.40;5.40;;;;;;;;;;5083263;28;20012;-44
2021/07/22 00:48:25;;;;;;;38.00;5.85;;;;;;;;;;5084365;28;20024;-45
2021/07/22 00:50:52;;;;;;;43.40;5.75;;;;;;;;;;5083228;28;20020;-46
2021/07/22 00:53:20;;;;;;;34.97;6.15;;;;;;;;;;5087808;28;20032;-44
2021/07/22 00:55:47;;;;;;;33.90;6.20;;;;;;;;;;5200475;22;20172;-44
2021/07/22 00:58:14;;;;;;;30.13;6.90;;;;;;;;;;5038517;28;20021;-45
2021/07/22 01:00:41;;;;;;;38.28;7.28;;;;;;;;;;5047606;28;20025;-45
2021/07/22 01:03:08;;;;;;;37.65;8.05;;;;;;;;;;5041880;28;20025;-44
2021/07/22 01:05:35;;;;;;;37.00;8.85;;;;;;;;;;5045092;28;20021;-45
2021/07/22 01:08:03;;;;;;;50.60;9.43;;;;;;;;;;5047096;28;20025;-44
2021/07/22 01:10:31;;;;;;;41.25;8.77;;;;;;;;;;5043126;28;20009;-44
2021/07/22 01:12:58;;;;;;;36.17;9.18;;;;;;;;;;5044446;28;20685;-44
2021/07/22 01:15:25;;;;;;;41.00;10.68;;;;;;;;;;5047470;28;20499;-44
2021/07/22 01:17:52;;;;;;;35.53;9.27;;;;;;;;;;5044982;28;20025;-46
2021/07/22 01:20:26;;;;;;;44.03;9.38;;;;;;;;;;5042213;28;20025;-47
2021/07/22 01:25:29;;;;;;;41.78;10.23;;;;;;;;;;5099733;22;20456;-45
2021/07/22 01:27:57;;;;;;;43.63;10.75;;;;;;;;;;5016616;28;20053;-44
2021/07/22 01:30:24;;;;;;;41.58;11.23;;;;;;;;;;5026708;28;20033;-44
2021/07/22 01:32:55;;;;;;;41.25;10.27;;;;;;;;;;5020885;28;20381;-44
2021/07/22 01:35:22;;;;;;;35.97;9.98;;;;;;;;;;5019304;28;20034;-44
2021/07/22 01:37:52;;;;;;;44.80;9.95;;;;;;;;;;5016578;28;20091;-44
2021/07/22 01:40:19;;;;;;;38.78;10.18;;;;;;;;;;5018080;28;20092;-45
2021/07/22 01:42:47;;;;;;;42.50;9.68;;;;;;;;;;5023340;28;20025;-45
2021/07/22 01:45:14;;;;;;;37.15;9.13;;;;;;;;;;5023098;28;20125;-44
2021/07/22 01:47:41;;;;;;;42.75;10.52;;;;;;;;;;5015256;28;20580;-44
2021/07/22 01:50:09;;;;;;;36.60;9.73;;;;;;;;;;5016579;28;20029;-46
2021/07/22 01:52:37;;;;;;;34.83;9.25;;;;;;;;;;5021443;28;20021;-44
2021/07/22 01:55:04;;;;;;;47.25;10.00;;;;;;;;;;5015210;28;20029;-44
2021/07/22 01:57:31;;;;;;;48.50;9.95;;;;;;;;;;5016692;28;20030;-44
2021/07/22 02:00:04;;;;;;;40.40;10.32;;;;;;;;;;5024953;28;20029;-44
2021/07/22 02:02:34;;;;;;;46.72;9.90;;;;;;;;;;5012469;28;20022;-44
2021/07/22 02:05:01;;;;;;;48.88;10.50;;;;;;;;;;5011768;28;20687;-44
2021/07/22 02:07:28;;;;;;;34.63;9.63;;;;;;;;;;5018847;28;20014;-44
2021/07/22 02:09:59;;;;;;;37.30;9.55;;;;;;;;;;5013926;28;20040;-46
2021/07/22 02:12:26;;;;;;;39.42;10.02;;;;;;;;;;5012758;28;20029;-44
2021/07/22 02:14:53;;;;;;;40.90;10.90;;;;;;;;;;5014012;28;20022;-45
2021/07/22 02:17:20;;;;;;;39.13;10.55;;;;;;;;;;5017874;28;20022;-45
2021/07/22 02:19:47;;;;;;;35.85;10.57;;;;;;;;;;5016925;28;20076;-43
2021/07/22 02:22:15;;;;;;;36.97;10.43;;;;;;;;;;5022011;28;20559;-44
2021/07/22 02:24:42;;;;;;;44.67;11.00;;;;;;;;;;5018564;28;20066;-44
2021/07/22 02:27:10;;;;;;;40.08;11.00;;;;;;;;;;5027662;28;20079;-45
2021/07/22 02:29:37;;;;;;;37.33;10.75;;;;;;;;;;5030056;28;20053;-44
2021/07/22 02:32:04;;;;;;;35.80;11.20;;;;;;;;;;5022751;28;20050;-44
2021/07/22 02:34:31;;;;;;;30.38;10.98;;;;;;;;;;5019488;28;20030;-44
2021/07/22 02:36:58;;;;;;;40.20;10.40;;;;;;;;;;5020347;28;20025;-44
2021/07/22 02:39:25;;;;;;;33.85;10.00;;;;;;;;;;5026547;28;20473;-45
2021/07/22 02:41:52;;;;;;;34.22;11.80;;;;;;;;;;5023194;28;20022;-47
2021/07/22 02:44:19;;;;;;;37.25;11.98;;;;;;;;;;5020665;28;20037;-46
2021/07/22 02:46:47;;;;;;;29.92;10.80;;;;;;;;;;5015109;28;20013;-47
2021/07/22 02:49:14;;;;;;;35.33;11.45;;;;;;;;;;5029409;28;20108;-46
2021/07/22 02:51:41;;;;;;;31.23;10.30;;;;;;;;;;5018685;28;20088;-46
2021/07/22 02:54:14;;;;;;;38.17;10.50;;;;;;;;;;5187624;23;21074;-46
2021/07/22 02:56:41;;;;;;;33.05;11.00;;;;;;;;;;5012356;28;20033;-46
2021/07/22 02:59:08;;;;;;;34.25;10.63;;;;;;;;;;5023614;28;20539;-46
2021/07/22 03:01:35;;;;;;;34.30;11.55;;;;;;;;;;5014737;28;20030;-46
2021/07/22 03:04:02;;;;;;;39.88;11.45;;;;;;;;;;5020633;28;20113;-46
2021/07/22 03:06:29;;;;;;;37.30;10.55;;;;;;;;;;5037652;28;20033;-47
2021/07/22 03:08:56;;;;;;;35.95;9.70;;;;;;;;;;5039581;28;20480;-46
2021/07/22 03:11:23;;;;;;;44.45;10.25;;;;;;;;;;5041601;28;20028;-46
2021/07/22 03:13:50;;;;;;;37.72;10.25;;;;;;;;;;5043984;28;20029;-49
2021/07/22 03:16:17;;;;;;;33.40;10.52;;;;;;;;;;5041230;28;20025;-46
2021/07/22 03:18:44;;;;;;;36.75;10.77;;;;;;;;;;5037728;28;20021;-47
2021/07/22 03:21:11;;;;;;;32.95;9.75;;;;;;;;;;5038922;28;20009;-47
2021/07/22 03:23:38;;;;;;;27.58;9.40;;;;;;;;;;5038013;28;20029;-47
2021/07/22 03:26:05;;;;;;;33.97;9.82;;;;;;;;;;5039028;28;20071;-46
2021/07/22 03:28:32;;;;;;;36.38;9.77;;;;;;;;;;5032842;28;20029;-46
2021/07/22 03:31:00;;;;;;;30.02;9.57;;;;;;;;;;5039104;28;20021;-46
2021/07/22 03:33:27;;;;;;;26.35;9.43;;;;;;;;;;5038950;28;20022;-47
2021/07/22 03:35:54;;;;;;;28.48;9.13;;;;;;;;;;5045690;28;20022;-47
2021/07/22 03:38:20;;;;;;;29.00;9.15;;;;;;;;;;5039206;28;20029;-46
2021/07/22 03:40:47;;;;;;;23.15;9.00;;;;;;;;;;5035253;28;20028;-46
2021/07/22 03:43:14;;;;;;;27.38;9.23;;;;;;;;;;5040488;28;21405;-47
2021/07/22 03:45:41;;;;;;;38.22;10.00;;;;;;;;;;5036892;28;20029;-46
2021/07/22 03:48:09;;;;;;;30.42;9.57;;;;;;;;;;5037875;28;20586;-47
2021/07/22 03:50:36;;;;;;;24.08;8.88;;;;;;;;;;5041197;28;20088;-47
2021/07/22 03:53:03;;;;;;;30.75;9.10;;;;;;;;;;5036923;28;20029;-46
2021/07/22 03:55:30;;;;;;;34.25;10.57;;;;;;;;;;5018089;28;20074;-46
2021/07/22 03:57:58;;;;;;;25.73;8.20;;;;;;;;;;5028862;28;20668;-47
2021/07/22 04:00:25;;;;;;;27.60;9.73;;;;;;;;;;5033915;28;20433;-49
2021/07/22 04:03:01;;;;;;;24.67;9.05;;;;;;;;;;5033661;28;20393;-47
2021/07/22 04:05:28;;;;;;;30.70;8.80;;;;;;;;;;5033476;28;20030;-49
2021/07/22 04:07:57;;;;;;;31.88;9.43;;;;;;;;;;5033560;28;20102;-47
2021/07/22 04:10:24;;;;;;;33.65;9.55;;;;;;;;;;5033418;28;20095;-47
2021/07/22 04:12:55;;;;;;;26.95;8.43;;;;;;;;;;5033587;28;20018;-47
2021/07/22 04:15:25;;;;;;;30.63;8.50;;;;;;;;;;5033304;28;20099;-48
2021/07/22 04:17:52;;;;;;;27.85;8.50;;;;;;;;;;5033644;28;20061;-46
2021/07/22 04:20:20;;;;;;;24.88;8.75;;;;;;;;;;5033255;28;20023;-50
2021/07/22 04:22:47;;;;;;;29.20;9.20;;;;;;;;;;5033304;28;20033;-47
2021/07/22 04:25:14;;;;;;;25.63;9.05;;;;;;;;;;5033091;28;20021;-47
2021/07/22 04:27:42;;;;;;;33.17;8.32;;;;;;;;;;5033372;28;20047;-47
2021/07/22 04:30:10;;;;;;;31.40;8.48;;;;;;;;;;5033201;28;20021;-47
2021/07/22 04:32:37;;;;;;;25.50;8.50;;;;;;;;;;5033188;28;20053;-48
2021/07/22 04:35:08;;;;;;;29.35;8.00;;;;;;;;;;5033120;28;20083;-47
2021/07/22 04:37:38;;;;;;;26.75;8.18;;;;;;;;;;5048292;28;20048;-47
2021/07/22 04:40:08;;;;;;;27.45;8.77;;;;;;;;;;5032840;28;20022;-48
2021/07/22 04:42:36;;;;;;;22.75;8.40;;;;;;;;;;5033065;28;20040;-47
2021/07/22 04:45:04;;;;;;;22.40;8.65;;;;;;;;;;5032682;28;20021;-47
2021/07/22 04:47:31;;;;;;;20.00;7.55;;;;;;;;;;5032911;28;20018;-46
2021/07/22 04:49:58;;;;;;;20.42;8.32;;;;;;;;;;5022961;28;20036;-48
2021/07/22 04:52:25;;;;;;;23.15;7.60;;;;;;;;;;5011996;28;20037;-48
2021/07/22 04:54:52;;;;;;;26.15;8.10;;;;;;;;;;5012069;28;20049;-48
2021/07/22 04:57:19;;;;;;;24.17;8.48;;;;;;;;;;5011416;28;20058;-49
2021/07/22 04:59:46;;;;;;;22.13;8.50;;;;;;;;;;5012266;28;20022;-47
2021/07/22 05:02:15;;;;;;;23.27;7.97;;;;;;;;;;5012430;28;20033;-48
2021/07/22 05:04:42;;;;;;;29.30;8.20;;;;;;;;;;5011874;28;20033;-49
2021/07/22 05:07:09;;;;;;;19.65;8.02;;;;;;;;;;5012487;28;20381;-51
2021/07/22 05:09:36;;;;;;;19.52;8.10;;;;;;;;;;5011751;28;20048;-50
2021/07/22 05:12:04;;;;;;;20.60;7.28;;;;;;;;;;5010949;28;20022;-49
2021/07/22 05:14:31;;;;;;;22.00;7.70;;;;;;;;;;5011922;28;20022;-47
2021/07/22 05:16:58;;;;;;;25.70;7.18;;;;;;;;;;5012464;28;20029;-48
2021/07/22 05:19:25;;;;;;;21.70;7.72;;;;;;;;;;5011838;28;20022;-52
2021/07/22 05:21:52;;;;;;;22.45;7.90;;;;;;;;;;5012138;28;20105;-51
2021/07/22 05:24:19;;;;;;;24.95;8.05;;;;;;;;;;5010012;28;20488;-48
2021/07/22 05:26:49;;;;;;;20.40;7.22;;;;;;;;;;5011604;28;20049;-54
2021/07/22 05:29:16;;;;;;;22.73;8.02;;;;;;;;;;5011809;28;20069;-48
2021/07/22 05:31:44;;;;;;;20.40;7.72;;;;;;;;;;5012149;28;20033;-49
2021/07/22 05:34:11;;;;;;;31.70;7.57;;;;;;;;;;5006438;28;20030;-50
2021/07/22 05:36:40;;;;;;;20.67;7.30;;;;;;;;;;5011781;28;20109;-50
2021/07/22 05:39:07;;;;;;;20.90;7.47;;;;;;;;;;5011899;28;20061;-50
2021/07/22 05:41:34;;;;;;;25.30;8.07;;;;;;;;;;5011406;28;20463;-50
2021/07/22 05:44:01;;;;;;;22.02;7.43;;;;;;;;;;5009643;28;20042;-49
2021/07/22 05:46:30;;;;;;;19.52;7.75;;;;;;;;;;5011248;28;20018;-49
2021/07/22 05:48:57;;;;;;;22.27;7.47;;;;;;;;;;5011850;28;20037;-50
2021/07/22 05:51:24;;;;;;;20.85;7.15;;;;;;;;;;5011561;28;20022;-49
2021/07/22 05:53:51;;;;;;;21.67;7.07;;;;;;;;;;5011646;28;20030;-49
2021/07/22 05:56:18;;;;;;;14.85;6.72;;;;;;;;;;5008726;28;20050;-49
2021/07/22 05:58:46;;;;;;;19.73;6.57;;;;;;;;;;5012124;28;20026;-48
2021/07/22 06:01:13;;;;;;;17.92;6.68;;;;;;;;;;5011418;28;20100;-48
2021/07/22 06:03:40;;;;;;;16.58;6.85;;;;;;;;;;5011738;28;20038;-48
2021/07/22 06:06:07;;;;;;;14.50;6.32;;;;;;;;;;5013270;28;20022;-48
2021/07/22 06:08:37;;;;;;;19.30;6.13;;;;;;;;;;5013467;28;20073;-48
2021/07/22 06:11:07;;;;;;;18.13;7.30;;;;;;;;;;5014943;28;20496;-49
2021/07/22 06:13:35;;;;;;;16.98;7.25;;;;;;;;;;5015477;28;20026;-48
2021/07/22 06:16:02;;;;;;;19.15;6.50;;;;;;;;;;5014843;28;20769;-48
2021/07/22 06:18:29;;;;;;;14.57;6.45;;;;;;;;;;5014755;28;20394;-48
2021/07/22 06:20:57;;;;;;;18.13;7.60;;;;;;;;;;5013000;28;20080;-48
2021/07/22 06:23:24;;;;;;;16.63;7.20;;;;;;;;;;5015365;28;20037;-48
2021/07/22 06:25:56;;;;;;;14.85;6.43;;;;;;;;;;5014840;28;20450;-49
2021/07/22 06:28:23;;;;;;;18.25;6.55;;;;;;;;;;5014753;28;20058;-48
2021/07/22 06:30:51;;;;;;;18.77;5.75;;;;;;;;;;5014268;28;20096;-48
2021/07/22 06:33:18;;;;;;;18.20;6.40;;;;;;;;;;5013289;28;20047;-48
2021/07/22 06:35:46;;;;;;;15.60;6.65;;;;;;;;;;5014829;28;20045;-48
2021/07/22 06:38:13;;;;;;;16.67;6.32;;;;;;;;;;5014395;28;20030;-49
2021/07/22 06:40:41;;;;;;;16.60;6.00;;;;;;;;;;5015191;28;20022;-48
2021/07/22 06:43:08;;;;;;;18.05;6.40;;;;;;;;;;5012944;28;20068;-48
2021/07/22 06:45:35;;;;;;;17.35;6.32;;;;;;;;;;5012449;28;20803;-49
2021/07/22 06:48:05;;;;;;;16.88;6.30;;;;;;;;;;5014182;28;20026;-48
2021/07/22 06:50:33;;;;;;;15.93;5.95;;;;;;;;;;5014779;28;20384;-48
2021/07/22 06:53:03;;;;;;;14.07;6.30;;;;;;;;;;5014237;28;20022;-49
2021/07/22 06:55:31;;;;;;;16.10;6.28;;;;;;;;;;5012540;28;20122;-49
2021/07/22 06:58:03;;;;;;;18.55;5.72;;;;;;;;;;5013472;28;20109;-48
2021/07/22 07:00:30;;;;;;;13.45;6.32;;;;;;;;;;5014466;28;20509;-49
2021/07/22 07:02:57;;;;;;;14.20;6.15;;;;;;;;;;5013955;28;20034;-49
2021/07/22 07:05:24;;;;;;;12.48;5.68;;;;;;;;;;5014636;28;20045;-49
2021/07/22 07:07:51;;;;;;;13.30;5.97;;;;;;;;;;5012023;28;20404;-48
2021/07/22 07:10:18;;;;;;;12.85;5.97;;;;;;;;;;5013830;28;20022;-49
2021/07/22 07:12:45;;;;;;;14.90;5.20;;;;;;;;;;5014512;28;20017;-48
2021/07/22 07:15:12;;;;;;;12.32;5.25;;;;;;;;;;5013607;28;20048;-48
2021/07/22 07:17:39;;;;;;;13.65;6.45;;;;;;;;;;5013767;28;20359;-49
2021/07/22 07:20:07;;;;;;;11.48;5.10;;;;;;;;;;5011616;28;20038;-49
2021/07/22 07:22:34;;;;;;;10.25;4.75;;;;;;;;;;5014071;28;20029;-48
2021/07/22 07:25:01;;;;;;;13.48;5.30;;;;;;;;;;5013535;28;20034;-48
2021/07/22 07:27:28;;;;;;;13.35;5.05;;;;;;;;;;5014048;28;20021;-48
2021/07/22 07:29:55;;;;;;;10.38;5.22;;;;;;;;;;5013262;28;20101;-48
2021/07/22 07:32:22;;;;;;;11.93;5.03;;;;;;;;;;5011587;28;20092;-48
2021/07/22 07:34:49;;;;;;;14.98;5.13;;;;;;;;;;5012417;28;20061;-48
2021/07/22 07:37:16;;;;;;;14.65;5.43;;;;;;;;;;5013560;28;20026;-48
2021/07/22 07:39:43;;;;;;;11.18;5.35;;;;;;;;;;5013450;28;20034;-49
2021/07/22 07:42:10;;;;;;;12.82;5.50;;;;;;;;;;5013627;28;20120;-49
2021/07/22 07:44:37;;;;;;;16.45;5.38;;;;;;;;;;5010868;28;20041;-49
2021/07/22 07:47:04;;;;;;;12.30;5.45;;;;;;;;;;5013406;28;20065;-49
2021/07/22 07:49:31;;;;;;;10.93;4.57;;;;;;;;;;5013820;28;20022;-48
2021/07/22 07:51:58;;;;;;;10.00;5.18;;;;;;;;;;5013314;28;20026;-48
2021/07/22 07:54:25;;;;;;;13.48;5.13;;;;;;;;;;5012829;28;20177;-49
2021/07/22 07:56:52;;;;;;;12.55;4.38;;;;;;;;;;5011203;28;20034;-48
2021/07/22 07:59:19;;;;;;;15.52;5.07;;;;;;;;;;5013285;28;20075;-49
2021/07/22 08:01:49;;;;;;;15.05;5.07;;;;;;;;;;5012920;28;20022;-50
2021/07/22 08:04:16;;;;;;;12.90;4.70;;;;;;;;;;5012190;28;20044;-48
2021/07/22 08:06:43;;;;;;;11.90;4.35;;;;;;;;;;5011960;28;20022;-49
2021/07/22 08:09:10;;;;;;;10.40;4.75;;;;;;;;;;5011650;28;20026;-49
2021/07/22 08:11:37;;;;;;;14.18;4.90;;;;;;;;;;5011607;28;20025;-49
2021/07/22 08:14:04;;;;;;;13.00;4.55;;;;;;;;;;5012824;28;20022;-49
2021/07/22 08:16:31;;;;;;;11.05;4.50;;;;;;;;;;5012706;28;20100;-48
2021/07/22 08:18:58;;;;;;;12.20;5.25;;;;;;;;;;5011920;28;20095;-48
2021/07/22 08:21:25;;;;;;;13.25;4.28;;;;;;;;;;5011458;28;20022;-48
2021/07/22 08:23:53;;;;;;;8.25;4.18;;;;;;;;;;5012753;28;20038;-49
2021/07/22 08:26:20;;;;;;;13.02;4.63;;;;;;;;;;5012683;28;20022;-49
2021/07/22 08:28:47;;;;;;;9.50;4.38;;;;;;;;;;5010749;28;20485;-49
2021/07/22 08:31:16;;;;;;;8.77;4.05;;;;;;;;;;5011304;28;20401;-49
2021/07/22 08:33:43;;;;;;;9.63;4.28;;;;;;;;;;5011911;28;20026;-51
2021/07/22 08:36:10;;;;;;;11.65;4.28;;;;;;;;;;5012852;28;20101;-49
2021/07/22 08:38:37;;;;;;;10.45;4.28;;;;;;;;;;5012039;28;20026;-48
2021/07/22 08:41:04;;;;;;;10.00;4.15;;;;;;;;;;5012621;28;20018;-49
2021/07/22 08:43:32;;;;;;;10.25;4.35;;;;;;;;;;5010254;28;20385;-48
2021/07/22 08:45:59;;;;;;;11.45;4.25;;;;;;;;;;5012305;28;20025;-48
2021/07/22 08:48:27;;;;;;;12.60;4.65;;;;;;;;;;5011966;28;20030;-48
2021/07/22 08:50:55;;;;;;;6.95;3.75;;;;;;;;;;5012729;28;20022;-50
2021/07/22 08:53:22;;;;;;;15.02;4.32;;;;;;;;;;5011878;28;20025;-49
2021/07/22 08:55:50;;;;;;;7.97;3.90;;;;;;;;;;5009972;28;20513;-49
2021/07/22 08:58:17;;;;;;;13.30;4.05;;;;;;;;;;5010949;28;20034;-50
2021/07/22 09:00:44;;;;;;;11.05;4.30;;;;;;;;;;5012562;28;20097;-49
2021/07/22 09:03:14;;;;;;;8.20;3.97;;;;;;;;;;5011816;28;20026;-49
2021/07/22 09:05:43;;;;;;;8.80;4.20;;;;;;;;;;5012411;28;20033;-49
2021/07/22 09:08:10;;;;;;;13.20;3.85;;;;;;;;;;5009352;28;20030;-49
2021/07/22 09:10:37;;;;;;;10.10;3.85;;;;;;;;;;5012284;28;20053;-49
2021/07/22 09:13:04;;;;;;;9.02;4.50;;;;;;;;;;5011724;28;20030;-49
2021/07/22 09:15:35;;;;;;;9.30;4.18;;;;;;;;;;5012145;28;20075;-49
2021/07/22 09:18:22;;;;;;;10.60;3.60;;;;;;;;;;5011720;28;20091;-49
2021/07/22 09:20:49;;;;;;;8.20;3.78;;;;;;;;;;5010428;28;20493;-51
2021/07/22 09:23:20;;;;;;;7.63;3.85;;;;;;;;;;5011842;28;20042;-50
2021/07/22 09:25:48;;;;;;;6.53;3.92;;;;;;;;;;5012184;28;20033;-51
2021/07/22 09:28:19;;;;;;;10.40;4.22;;;;;;;;;;5011962;28;20034;-49
2021/07/22 09:30:58;;;;;;;7.97;3.90;;;;;;;;;;5010467;28;20097;-49
2021/07/22 09:33:42;;;;;;;7.97;3.70;;;;;;;;;;5011095;28;20385;-48
2021/07/22 09:36:32;;;;;;;8.40;4.07;;;;;;;;;;5011497;28;20068;-49
2021/07/22 09:39:20;;;;;;;8.60;3.30;;;;;;;;;;5012282;28;20064;-50
2021/07/22 09:41:57;;;;;;;10.63;3.88;;;;;;;;;;5015546;28;20380;-52
2021/07/22 09:44:35;;;;;;;8.00;3.75;;;;;;;;;;5013629;28;20038;-50
2021/07/22 09:47:03;;;;;;;6.53;3.97;;;;;;;;;;5015531;28;20017;-49
2021/07/22 09:49:32;;;;;;;9.82;3.63;;;;;;;;;;5015897;28;20109;-48
2021/07/22 09:52:02;;;;;;;6.43;3.30;;;;;;;;;;5015420;28;20026;-49
2021/07/22 09:54:34;;;;;;;6.78;3.83;;;;;;;;;;5014730;28;20028;-49
2021/07/22 09:57:04;;;;;;;9.57;3.85;;;;;;;;;;5012551;28;20025;-49
2021/07/22 09:59:31;;;;;;;9.75;3.63;;;;;;;;;;5015516;28;20045;-49
2021/07/22 10:02:05;;;;;;;9.65;3.95;;;;;;;;;;5015103;28;20087;-49
2021/07/22 10:04:32;;;;;;;11.75;3.78;;;;;;;;;;5015461;28;20033;-49
2021/07/22 10:07:03;;;;;;;11.25;3.88;;;;;;;;;;5013778;28;20050;-49
2021/07/22 10:09:34;;;;;;;10.32;3.40;;;;;;;;;;5014401;28;20125;-49
2021/07/22 10:12:03;;;;;;;7.95;3.92;;;;;;;;;;5014947;28;20101;-49
2021/07/22 10:14:30;;;;;;;8.43;4.15;;;;;;;;;;5015426;28;20021;-51
2021/07/22 10:17:00;;;;;;;10.25;3.78;;;;;;;;;;5013776;28;20037;-49
2021/07/22 10:19:28;;;;;;;7.57;3.50;;;;;;;;;;5013411;28;20547;-49
2021/07/22 10:21:57;;;;;;;7.05;3.45;;;;;;;;;;5014497;28;20474;-49
2021/07/22 10:24:24;;;;;;;7.90;3.80;;;;;;;;;;5015313;28;20379;-49
2021/07/22 10:26:51;;;;;;;8.27;3.53;;;;;;;;;;5015016;28;20072;-49
2021/07/22 10:29:18;;;;;;;10.52;4.00;;;;;;;;;;5013476;28;20753;-49
2021/07/22 10:31:47;;;;;;;9.95;4.18;;;;;;;;;;5013028;28;20386;-50
2021/07/22 10:34:16;;;;;;;11.13;3.80;;;;;;;;;;5014490;28;20133;-49
2021/07/22 10:36:45;;;;;;;9.15;3.50;;;;;;;;;;5015061;28;20029;-49
2021/07/22 10:39:13;;;;;;;8.40;3.80;;;;;;;;;;5014494;28;20029;-50
2021/07/22 10:41:41;;;;;;;6.65;3.45;;;;;;;;;;5015008;28;20045;-49
2021/07/22 10:44:20;;;;;;;8.20;3.42;;;;;;;;;;5010684;28;20140;-49
2021/07/22 10:46:55;;;;;;;9.00;3.88;;;;;;;;;;5015122;28;20040;-49
2021/07/22 10:49:37;;;;;;;12.50;3.97;;;;;;;;;;5014173;28;20096;-49
2021/07/22 10:52:04;;;;;;;7.63;3.80;;;;;;;;;;5014362;28;20026;-49
2021/07/22 10:54:40;;;;;;;7.43;3.45;;;;;;;;;;5013233;28;20034;-49
2021/07/22 10:57:07;;;;;;;6.20;3.50;;;;;;;;;;5013500;28;20156;-49
2021/07/22 10:59:54;;;;;;;8.40;3.92;;;;;;;;;;5014059;28;20053;-49
2021/07/22 11:02:43;;;;;;;11.40;3.90;;;;;;;;;;5014728;28;20482;-48
2021/07/22 11:05:30;;;;;;;9.20;3.80;;;;;;;;;;5013881;28;20049;-49
2021/07/22 11:08:36;;;;;;;10.73;3.65;;;;;;;;;;5011758;28;20065;-49
2021/07/22 11:11:09;;;;;;;9.68;3.50;;;;;;;;;;4972613;28;20033;-49
2021/07/22 11:13:36;;;;;;;7.32;3.50;;;;;;;;;;4973107;28;20074;-50
2021/07/22 11:16:08;;;;;;;12.73;4.57;;;;;;;;;;4994941;28;20095;-49
2021/07/22 11:18:44;;;;;;;8.63;3.53;;;;;;;;;;5013513;28;20026;-49
2021/07/22 11:21:18;;;;;;;11.10;4.05;;;;;;;;;;5012317;28;20030;-49
2021/07/22 11:23:55;;;;;;;11.88;4.15;;;;;;;;;;5014138;28;20041;-50
2021/07/22 11:26:32;;;;;;;10.32;4.05;;;;;;;;;;5013650;28;20469;-49
2021/07/22 11:28:59;;;;;;;7.78;3.63;;;;;;;;;;5014084;28;20030;-50
2021/07/22 11:31:31;;;;;;;10.85;3.70;;;;;;;;;;5011357;28;20369;-49
2021/07/22 11:34:02;;;;;;;10.35;4.60;;;;;;;;;;5013567;28;20029;-49
2021/07/22 11:36:29;;;;;;;7.95;3.80;;;;;;;;;;5013424;28;20029;-49
2021/07/22 11:38:56;;;;;;;9.02;3.20;;;;;;;;;;5014058;28;20025;-49
2021/07/22 11:41:23;;;;;;;10.15;4.00;;;;;;;;;;5013120;28;20469;-49
2021/07/22 11:43:54;;;;;;;9.70;4.00;;;;;;;;;;5011078;28;20034;-50
2021/07/22 11:46:42;;;;;;;9.90;3.88;;;;;;;;;;5013445;28;20018;-50
2021/07/22 11:49:10;;;;;;;16.40;4.20;;;;;;;;;;5013524;28;20028;-50
2021/07/22 11:51:37;;;;;;;11.73;4.30;;;;;;;;;;5013165;28;20025;-49
2021/07/22 11:54:04;;;;;;;10.82;4.07;;;;;;;;;;5012862;28;20026;-49
2021/07/22 11:56:35;;;;;;;10.05;4.15;;;;;;;;;;5010899;28;20045;-49
2021/07/22 11:59:07;;;;;;;9.48;4.35;;;;;;;;;;5013538;28;20394;-49
2021/07/22 12:01:35;;;;;;;13.18;4.50;;;;;;;;;;5012767;28;20113;-49
2021/07/22 12:04:03;;;;;;;10.00;4.43;;;;;;;;;;5011956;28;20045;-49
2021/07/22 12:06:30;;;;;;;9.32;4.40;;;;;;;;;;5012201;28;20026;-50
2021/07/22 12:09:07;;;;;;;9.75;3.95;;;;;;;;;;5022426;28;20029;-49
2021/07/22 12:11:57;;;;;;;11.20;4.15;;;;;;;;;;5032391;28;20025;-51
2021/07/22 12:14:35;;;;;;;10.07;4.57;;;;;;;;;;5025364;28;20044;-50
2021/07/22 12:17:04;;;;;;;21.40;5.05;;;;;;;;;;5032434;28;20496;-50
2021/07/22 12:19:32;;;;;;;8.52;4.00;;;;;;;;;;5020382;28;20044;-49
2021/07/22 12:22:34;;;;;;;10.45;3.90;;;;;;;;;;5012076;28;20022;-49
2021/07/22 12:25:04;;;;;;;12.68;4.82;;;;;;;;;;4953681;28;20462;-50
2021/07/22 12:27:35;;;;;;;11.95;4.38;;;;;;;;;;5010086;28;20101;-50
2021/07/22 12:30:33;;;;;;;11.15;5.07;;;;;;;;;;5019718;28;20429;-50
2021/07/22 12:33:05;;;;;;;12.45;4.32;;;;;;;;;;5029948;28;20041;-45
2021/07/22 12:35:46;;;;;;;11.73;4.53;;;;;;;;;;5032539;28;20021;-49
2021/07/22 12:38:16;;;;;;;14.85;4.90;;;;;;;;;;5028703;28;20034;-49
2021/07/22 12:40:44;;;;;;;16.42;4.85;;;;;;;;;;5018855;28;20025;-49
2021/07/22 12:43:12;;;;;;;12.98;4.40;;;;;;;;;;5019271;28;20077;-52
2021/07/22 12:45:39;;;;;;;12.43;4.93;;;;;;;;;;5023024;28;20084;-52
2021/07/22 12:48:07;;;;;;;15.82;4.88;;;;;;;;;;5019940;28;20097;-54
2021/07/22 12:50:44;;;;;;;10.30;4.95;;;;;;;;;;5021913;28;20024;-50
2021/07/22 12:53:14;;;;;;;24.38;4.93;;;;;;;;;;5021403;28;20508;-48
2021/07/22 12:55:41;;;;;;;13.23;4.68;;;;;;;;;;5020164;28;20738;-43
2021/07/22 12:58:24;;;;;;;14.85;4.85;;;;;;;;;;5020615;28;20666;-46
2021/07/22 13:01:00;;;;;;;12.02;4.60;;;;;;;;;;5031890;28;20377;-46
2021/07/22 13:03:32;;;;;;;15.85;5.40;;;;;;;;;;5012598;28;20038;-46
2021/07/22 13:05:59;;;;;;;11.20;4.80;;;;;;;;;;5021074;28;20029;-46
2021/07/22 13:08:26;;;;;;;11.30;4.53;;;;;;;;;;5016261;28;20071;-45
2021/07/22 13:10:56;;;;;;;11.93;5.03;;;;;;;;;;5020696;28;20542;-46
2021/07/22 13:13:23;;;;;;;14.13;5.40;;;;;;;;;;5001108;28;20037;-46
2021/07/22 13:15:50;;;;;;;17.40;5.05;;;;;;;;;;5011727;28;20477;-47
2021/07/22 13:18:18;;;;;;;12.27;4.65;;;;;;;;;;5026876;28;20025;-47
2021/07/22 13:20:45;;;;;;;12.10;5.10;;;;;;;;;;5012426;28;20036;-47
2021/07/22 13:23:12;;;;;;;10.68;4.55;;;;;;;;;;5019438;28;20034;-46
2021/07/22 13:25:39;;;;;;;15.48;5.13;;;;;;;;;;5017252;28;20029;-48
2021/07/22 13:28:06;;;;;;;12.57;5.03;;;;;;;;;;5017034;28;20446;-43
2021/07/22 13:30:33;;;;;;;18.50;4.65;;;;;;;;;;5009950;28;20044;-50
2021/07/22 13:33:00;;;;;;;16.80;4.68;;;;;;;;;;5017535;28;20034;-42
2021/07/22 13:35:35;;;;;;;12.75;4.88;;;;;;;;;;5015167;28;20042;-43
2021/07/22 13:38:03;;;;;;;14.85;5.20;;;;;;;;;;5018869;28;20060;-43
2021/07/22 13:40:30;;;;;;;14.77;4.97;;;;;;;;;;5010639;28;20033;-41
2021/07/22 13:43:00;;;;;;;14.55;4.65;;;;;;;;;;5009330;28;20089;-40
2021/07/22 13:45:28;;;;;;;12.38;5.00;;;;;;;;;;5021201;28;20040;-47
2021/07/22 13:47:55;;;;;;;9.95;4.65;;;;;;;;;;5023231;28;20478;-47
2021/07/22 13:50:22;;;;;;;12.95;4.78;;;;;;;;;;5018261;28;20029;-47
2021/07/22 13:52:49;;;;;;;15.68;5.00;;;;;;;;;;5022635;28;20018;-49
2021/07/22 13:55:16;;;;;;;15.68;5.10;;;;;;;;;;5016170;28;20121;-44
2021/07/22 13:57:43;;;;;;;13.85;4.85;;;;;;;;;;5020352;28;20034;-44
2021/07/22 14:00:11;;;;;;;16.20;5.15;;;;;;;;;;5022228;28;20406;-44
2021/07/22 14:02:38;;;;;;;9.23;4.40;;;;;;;;;;5023925;28;20052;-46
2021/07/22 14:05:06;;;;;;;14.20;4.90;;;;;;;;;;5027572;28;20037;-44
2021/07/22 14:07:34;;;;;;;18.15;5.07;;;;;;;;;;4998890;28;20367;-44
2021/07/22 14:10:01;;;;;;;14.73;4.85;;;;;;;;;;5003748;28;20764;-44
2021/07/22 14:12:28;;;;;;;18.70;4.25;;;;;;;;;;5000662;28;20115;-45
2021/07/22 14:14:55;;;;;;;15.60;4.40;;;;;;;;;;5003802;28;20017;-46
2021/07/22 14:17:22;;;;;;;21.27;4.97;;;;;;;;;;5007201;28;20084;-46
2021/07/22 14:19:49;;;;;;;15.20;4.18;;;;;;;;;;5000883;28;20084;-44
2021/07/22 14:22:16;;;;;;;11.80;5.05;;;;;;;;;;5003809;28;20034;-44
2021/07/22 14:24:43;;;;;;;18.63;4.47;;;;;;;;;;5005349;28;20073;-46
2021/07/22 14:27:10;;;;;;;26.10;5.82;;;;;;;;;;5006263;28;20485;-45
2021/07/22 14:29:37;;;;;;;14.60;4.93;;;;;;;;;;5014317;28;20028;-44
2021/07/22 14:32:04;;;;;;;11.80;4.60;;;;;;;;;;5002006;28;20027;-46
2021/07/22 14:34:31;;;;;;;18.08;4.05;;;;;;;;;;5007713;28;20037;-44
2021/07/22 14:36:58;;;;;;;14.90;4.32;;;;;;;;;;5007737;28;20059;-44
2021/07/22 14:39:25;;;;;;;15.98;4.22;;;;;;;;;;5006787;28;20036;-44
2021/07/22 14:41:52;;;;;;;23.77;4.93;;;;;;;;;;5010541;28;20026;-45
2021/07/22 14:44:19;;;;;;;11.00;4.10;;;;;;;;;;5005418;28;20427;-44